Etusivu
METAR-TAF:

METAR-TAF

Lentoasemat :

Agadir, Marokko

Leveyspiiri: 30-20N, Pituuspiiri: 009-24W, korkeus merenpinnasta: 74 m

Tämänhetkinen sää

Tämä raportti tehtiin 38 minuuttia sitten, kello 12.00 UTC
Tuuli 9 kn lännestä
Lämpötila 27°C
Kosteus 58%
Ilmanpaine 1010 hPa
Näkyvyys: 8000 m

METAR: GMAD 281200Z 27009KT 8000 NSC 27/18 Q1010 NOSIG

Aika: 13:38 (12:38 UTC)

Sääennuste

Tämä raportti tehtiin 1 tunti ja 38 minuuttia sitten, kello 11.00 UTC
Ennuste voimassa 28. päivästä klo 12 UTC - 29. päivään klo 18 UTC
Tuuli 12 kn lännestä
Näkyvyys 10 km tai enemmän
ei pilviä alle 1500 m:ssä eikä cumulonimbus-pilviä
Tulossa
29. päivästä klo 00 UTC - 29. päivään klo 03 UTC
Näkyvyys: 6000 m
Hajonneita pilviä 1000 ft:n korkeudessa

TAF: GMAD 281100Z 2812/2918 26012KT CAVOK BECMG 2900/2903 6000 BKN010

Säähavainnot ja -ennusteet yli 4000 lentoasemalta (METAR- ja TAF-raportit).

Käytössä olevat sääasemat on merkitty karttaan keltaisilla ja punaisilla pisteillä.

Aseta hiiri pisteen päälle nähdäksesi sääaseman nimen.

Klikkaa sitten nähdäksesi säähavainnot ja -ennusteet.

Kartan vaihtaminen: klikkaa mustalla rastilla varustettuja vihreitä pisteitä, niin voit zoomata sisään; viivalla varustettua vihreää pistettä, niin voit zoomata ulos tai vihreitä nuolia, niin pääset viereisille kartoille.


METAR-TAF: